Impacts METAR Board
IDs:

KCVG - Cincinnati Intl, KY, US

Updated at: 0800 UTC 19 Jun 2018
Potential Impact None Slight Moderate High
Time 18/20Z 18/21Z 18/22Z 18/23Z 19/00Z 19/01Z 19/02Z 19/03Z 19/04Z 19/05Z 19/06Z 19/07Z 19/08Z
Temp93 92 92 91 89 85 83 82 81 80 79 78 77
Dewpt67 67 66 67 70 70 71 71 71 71 72 71 71
Altim30.05 30.02 30.01 29.99 29.99 30.00 30.01 30.03 30.03 30.03 30.02 30.01 30.00
VIS10 10 10 10 10 10 10 10 10 10 10 10 10
CIG-- -- -- -- -- -- -- -- -- -- -- -- --
CoverFEWFEWFEWFEWFEWFEWCLRCLRCLRCLRCLRCLRCLR
FltCatVFRVFRVFRVFRVFRVFRVFRVFRVFRVFRVFRVFRVFR
WX--------------------------
WDir230240250240280260240250240240240230230
WSpd9 7 10 7 9 5 4 5 7 5 5 5 6
WGst-- -- 16 -- -- -- -- -- -- -- -- -- --
Raw hourly METARs
KCVG 181952Z 23009KT 10SM FEW055 FEW300 34/19 A3005 RMK AO2 SLP163 T03390194 $
KCVG 182052Z 24007KT 210V270 10SM FEW055 33/19 A3002 RMK AO2 SLP154 T03330194 58021 $
KCVG 182152Z 25010G16KT 10SM FEW055 33/19 A3001 RMK AO2 SLP149 T03330189 $
KCVG 182252Z 24007KT 10SM FEW050 33/19 A2999 RMK AO2 SLP142 T03280194 $
KCVG 182352Z 28009KT 10SM FEW300 32/21 A2999 RMK AO2 SLP142 T03170211 10344 20317 55012 $
KCVG 190052Z 26005KT 10SM FEW300 29/21 A3000 RMK AO2 SLP146 T02940211 $
KCVG 190152Z 24004KT 10SM CLR 28/22 A3001 RMK AO2 SLP149 T02830217 $
KCVG 190252Z 25005KT 10SM CLR 28/22 A3003 RMK AO2 SLP156 T02780217 53014 $
KCVG 190352Z 24007KT 10SM CLR 27/22 A3003 RMK AO2 SLP154 T02720217 $
KCVG 190452Z 24005KT 10SM CLR 27/22 A3003 RMK AO2 SLP155 T02670217 403440211 $
KCVG 190552Z 24005KT 10SM CLR 26/22 A3002 RMK AO2 SLP152 T02610222 10317 20261 58004 $
KCVG 190652Z 23005KT 10SM CLR 26/22 A3001 RMK AO2 SLP149 T02560217 $
KCVG 190752Z 23006KT 10SM CLR 25/22 A3000 RMK AO2 SLP145 T02500217 $



Page loaded:  08:54 UTC  |   01:54 AM Pacific  |   02:54 AM Mountain  |   03:54 AM Central  |   04:54 AM Eastern

 

ADVISORIES

FORECASTS

FORECASTS

OBSERVATIONS

USER TOOLS

ABOUT US